Map

Track Data

SID SEASON NUMBER BASIN SUBBASIN NAME ISO_TIME NATURE LAT LON WMO_WIND WMO_PRES WMO_AGENCY TRACK_TYPE DIST2LAND LANDFALL IFLAG USA_AGENCY USA_ATCF_ID USA_LAT USA_LON USA_RECORD USA_STATUS USA_WIND USA_PRES USA_SSHS USA_R34_NE USA_R34_SE USA_R34_SW USA_R34_NW USA_R50_NE USA_R50_SE USA_R50_SW USA_R50_NW USA_R64_NE USA_R64_SE USA_R64_SW USA_R64_NW USA_POCI USA_ROCI USA_RMW USA_EYE TOKYO_LAT TOKYO_LON TOKYO_GRADE TOKYO_WIND TOKYO_PRES TOKYO_R50_DIR TOKYO_R50_LONG TOKYO_R50_SHORT TOKYO_R30_DIR TOKYO_R30_LONG TOKYO_R30_SHORT TOKYO_LAND CMA_LAT CMA_LON CMA_CAT CMA_WIND CMA_PRES HKO_LAT HKO_LON HKO_CAT HKO_WIND HKO_PRES NEWDELHI_LAT NEWDELHI_LON NEWDELHI_GRADE NEWDELHI_WIND NEWDELHI_PRES NEWDELHI_CI NEWDELHI_DP NEWDELHI_POCI REUNION_LAT REUNION_LON REUNION_TYPE REUNION_WIND REUNION_PRES REUNION_TNUM REUNION_CI REUNION_RMW REUNION_R34_NE REUNION_R34_SE REUNION_R34_SW REUNION_R34_NW REUNION_R50_NE REUNION_R50_SE REUNION_R50_SW REUNION_R50_NW REUNION_R64_NE REUNION_R64_SE REUNION_R64_SW REUNION_R64_NW BOM_LAT BOM_LON BOM_TYPE BOM_WIND BOM_PRES BOM_TNUM BOM_CI BOM_RMW BOM_R34_NE BOM_R34_SE BOM_R34_SW BOM_R34_NW BOM_R50_NE BOM_R50_SE BOM_R50_SW BOM_R50_NW BOM_R64_NE BOM_R64_SE BOM_R64_SW BOM_R64_NW BOM_ROCI BOM_POCI BOM_EYE BOM_POS_METHOD BOM_PRES_METHOD NADI_LAT NADI_LON NADI_CAT NADI_WIND NADI_PRES WELLINGTON_LAT WELLINGTON_LON WELLINGTON_WIND WELLINGTON_PRES DS824_LAT DS824_LON DS824_STAGE DS824_WIND DS824_PRES TD9636_LAT TD9636_LON TD9636_STAGE TD9636_WIND TD9636_PRES TD9635_LAT TD9635_LON TD9635_WIND TD9635_PRES TD9635_ROCI NEUMANN_LAT NEUMANN_LON NEUMANN_CLASS NEUMANN_WIND NEUMANN_PRES MLC_LAT MLC_LON MLC_CLASS MLC_WIND MLC_PRES USA_GUST BOM_GUST BOM_GUST_PER REUNION_GUST REUNION_GUST_PER USA_SEAHGT USA_SEARAD_NE USA_SEARAD_SE USA_SEARAD_SW USA_SEARAD_NW STORM_SPEED STORM_DIR
1915218N14334 1915 25 NA NA NOT_NAMED 1915-08-05 12:00:00 TS 14.0000 -26.0000 30 hurdat_atl main 919 919 O_____________ hurdat_atl AL021915 14.0000 -26.0000 TD 30 -1 17 269
1915218N14334 1915 25 NA NA NOT_NAMED 1915-08-05 15:00:00 TS 13.9881 -26.8977 main 1016 1016 P_____________ AL021915 13.9881 -26.8977 TD 30 -1 17 270
1915218N14334 1915 25 NA NA NOT_NAMED 1915-08-05 18:00:00 TS 14.0000 -27.8000 30 hurdat_atl main 1112 1112 O_____________ hurdat_atl AL021915 14.0000 -27.8000 TD 30 -1 18 272
1915218N14334 1915 25 NA NA NOT_NAMED 1915-08-05 21:00:00 TS 14.0497 -28.7074 main 1209 1209 P_____________ AL021915 14.0497 -28.7074 TD 32 -1 18 273
1915218N14334 1915 25 NA NA NOT_NAMED 1915-08-06 00:00:00 TS 14.1000 -29.6000 35 hurdat_atl main 1305 1305 O_____________ hurdat_atl AL021915 14.1000 -29.6000 TS 35 0 17 272
1915218N14334 1915 25 NA NA NOT_NAMED 1915-08-06 03:00:00 TS 14.0996 -30.4577 main 1402 1402 P_____________ AL021915 14.0996 -30.4577 TS 35 0 17 270
1915218N14334 1915 25 NA NA NOT_NAMED 1915-08-06 06:00:00 TS 14.1000 -31.3000 35 hurdat_atl main 1488 1488 O_____________ hurdat_atl AL021915 14.1000 -31.3000 TS 35 0 17 272
1915218N14334 1915 25 NA NA NOT_NAMED 1915-08-06 09:00:00 TS 14.1499 -32.1649 main 1585 1584 P_____________ AL021915 14.1499 -32.1649 TS 35 0 17 273
1915218N14334 1915 25 NA NA NOT_NAMED 1915-08-06 12:00:00 TS 14.2000 -33.0000 35 hurdat_atl main 1670 1670 O_____________ hurdat_atl AL021915 14.2000 -33.0000 TS 35 0 16 272
1915218N14334 1915 25 NA NA NOT_NAMED 1915-08-06 15:00:00 TS 14.1996 -33.7651 main 1756 1756 P_____________ AL021915 14.1996 -33.7651 TS 35 0 15 270
1915218N14334 1915 25 NA NA NOT_NAMED 1915-08-06 18:00:00 TS 14.2000 -34.5000 35 hurdat_atl main 1831 1831 O_____________ hurdat_atl AL021915 14.2000 -34.5000 TS 35 0 14 272
1915218N14334 1915 25 NA NA NOT_NAMED 1915-08-06 21:00:00 TS 14.2423 -35.2500 main 1907 1907 P_____________ AL021915 14.2423 -35.2500 TS 35 0 15 274
1915218N14334 1915 25 NA NA NOT_NAMED 1915-08-07 00:00:00 TS 14.3000 -36.0000 35 hurdat_atl main 1972 1954 O_____________ hurdat_atl AL021915 14.3000 -36.0000 TS 35 0 15 274
1915218N14334 1915 25 NA NA NOT_NAMED 1915-08-07 03:00:00 TS 14.3498 -36.7500 main 1945 1889 P_____________ AL021915 14.3498 -36.7500 TS 35 0 15 274
1915218N14334 1915 25 NA NA NOT_NAMED 1915-08-07 06:00:00 TS 14.4000 -37.5000 35 hurdat_atl main 1889 1828 O_____________ hurdat_atl AL021915 14.4000 -37.5000 TS 35 0 15 274
1915218N14334 1915 25 NA NA NOT_NAMED 1915-08-07 09:00:00 TS 14.4498 -38.2500 main 1819 1767 P_____________ AL021915 14.4498 -38.2500 TS 37 0 15 274
1915218N14334 1915 25 NA NA NOT_NAMED 1915-08-07 12:00:00 TS 14.5000 -39.0000 40 hurdat_atl main 1767 1716 O_____________ hurdat_atl AL021915 14.5000 -39.0000 TS 40 0 15 274
1915218N14334 1915 25 NA NA NOT_NAMED 1915-08-07 15:00:00 TS 14.5573 -39.7500 main 1716 1653 P_____________ AL021915 14.5573 -39.7500 TS 40 0 15 274
1915218N14334 1915 25 NA NA NOT_NAMED 1915-08-07 18:00:00 TS 14.6000 -40.5000 40 hurdat_atl main 1653 1598 O_____________ hurdat_atl AL021915 14.6000 -40.5000 TS 40 0 15 272
1915218N14334 1915 25 NA NA NOT_NAMED 1915-08-07 21:00:00 TS 14.5998 -41.2502 main 1591 1539 P_____________ AL021915 14.5998 -41.2502 TS 42 0 15 270
1915218N14334 1915 25 NA NA NOT_NAMED 1915-08-08 00:00:00 TS 14.6000 -42.0000 45 hurdat_atl main 1539 1489 O_____________ hurdat_atl AL021915 14.6000 -42.0000 TS 45 0 15 272
1915218N14334 1915 25 NA NA NOT_NAMED 1915-08-08 03:00:00 TS 14.6423 -42.7500 main 1489 1444 P_____________ AL021915 14.6423 -42.7500 TS 47 0 15 274
1915218N14334 1915 25 NA NA NOT_NAMED 1915-08-08 06:00:00 TS 14.7000 -43.5000 50 hurdat_atl main 1444 1407 O_____________ hurdat_atl AL021915 14.7000 -43.5000 TS 50 0 14 275
1915218N14334 1915 25 NA NA NOT_NAMED 1915-08-08 09:00:00 TS 14.7570 -44.2275 main 1410 1359 P_____________ AL021915 14.7570 -44.2275 TS 52 0 15 274
1915218N14334 1915 25 NA NA NOT_NAMED 1915-08-08 12:00:00 TS 14.8000 -45.0000 55 hurdat_atl main 1359 1307 O_____________ hurdat_atl AL021915 14.8000 -45.0000 TS 55 0 16 272
1915218N14334 1915 25 NA NA NOT_NAMED 1915-08-08 15:00:00 TS 14.7997 -45.8627 main 1301 1254 P_____________ AL021915 14.7997 -45.8627 TS 57 0 17 270
1915218N14334 1915 25 NA NA NOT_NAMED 1915-08-08 18:00:00 TS 14.8000 -46.8000 60 hurdat_atl main 1248 1201 O_____________ hurdat_atl AL021915 14.8000 -46.8000 TS 60 0 19 271
1915218N14334 1915 25 NA NA NOT_NAMED 1915-08-08 21:00:00 TS 14.8423 -47.7850 main 1196 1165 P_____________ AL021915 14.8423 -47.7850 TS 62 0 19 273
1915218N14334 1915 25 NA NA NOT_NAMED 1915-08-09 00:00:00 TS 14.9000 -48.8000 65 hurdat_atl main 1160 1116 O_____________ hurdat_atl AL021915 14.9000 -48.8000 HU 65 1 20 273
1915218N14334 1915 25 NA NA NOT_NAMED 1915-08-09 03:00:00 TS 14.9498 -49.8225 main 1116 1088 P_____________ AL021915 14.9498 -49.8225 HU 67 1 19 273
1915218N14334 1915 25 NA NA NOT_NAMED 1915-08-09 06:00:00 TS 15.0000 -50.8000 70 hurdat_atl main 1084 1061 O_____________ hurdat_atl AL021915 15.0000 -50.8000 HU 70 1 18 273
1915218N14334 1915 25 NA NA NOT_NAMED 1915-08-09 09:00:00 TS 15.0571 -51.6874 main 1066 1044 P_____________ AL021915 15.0571 -51.6874 HU 70 1 16 273
1915218N14334 1915 25 NA NA NOT_NAMED 1915-08-09 12:00:00 TS 15.1000 -52.5000 70 hurdat_atl main 1044 978 O_____________ hurdat_atl AL021915 15.1000 -52.5000 HU 70 1 15 272
1915218N14334 1915 25 NA NA NOT_NAMED 1915-08-09 15:00:00 TS 15.0996 -53.2652 main 969 904 P_____________ AL021915 15.0996 -53.2652 HU 70 1 14 270
1915218N14334 1915 25 NA NA NOT_NAMED 1915-08-09 18:00:00 TS 15.1000 -54.0000 70 hurdat_atl main 904 842 O_____________ hurdat_atl AL021915 15.1000 -54.0000 HU 70 1 14 272
1915218N14334 1915 25 NA NA NOT_NAMED 1915-08-09 21:00:00 TS 15.1498 -54.7499 main 842 780 P_____________ AL021915 15.1498 -54.7499 HU 72 1 15 274
1915218N14334 1915 25 NA NA NOT_NAMED 1915-08-10 00:00:00 TS 15.2000 -55.5000 75 hurdat_atl main 780 724 O_____________ hurdat_atl AL021915 15.2000 -55.5000 HU 75 1 15 272
1915218N14334 1915 25 NA NA NOT_NAMED 1915-08-10 03:00:00 TS 15.1998 -56.2502 main 716 664 P_____________ AL021915 15.1998 -56.2502 HU 75 1 14 270
1915218N14334 1915 25 NA NA NOT_NAMED 1915-08-10 06:00:00 TS 15.2000 -57.0000 75 hurdat_atl main 664 617 O_____________ hurdat_atl AL021915 15.2000 -57.0000 HU 75 1 15 272
1915218N14334 1915 25 NA NA NOT_NAMED 1915-08-10 09:00:00 TS 15.2500 -57.7724 main 611 581 P_____________ AL021915 15.2500 -57.7724 HU 75 1 15 274
1915218N14334 1915 25 NA NA NOT_NAMED 1915-08-10 12:00:00 TS 15.3000 -58.5000 75 hurdat_atl main 581 554 O_____________ hurdat_atl AL021915 15.3000 -58.5000 HU 75 1 13 272
1915218N14334 1915 25 NA NA NOT_NAMED 1915-08-10 15:00:00 TS 15.2998 -59.1451 main 554 533 P_____________ AL021915 15.2998 -59.1451 HU 77 1 12 270
1915218N14334 1915 25 NA NA NOT_NAMED 1915-08-10 18:00:00 TS 15.3000 -59.7000 80 hurdat_atl main 533 524 O_____________ hurdat_atl AL021915 15.3000 -59.7000 HU 80 1 10 272
1915218N14334 1915 25 NA CS NOT_NAMED 1915-08-10 21:00:00 TS 15.3423 -60.1725 main 522 522 P_____________ AL021915 15.3423 -60.1725 HU 80 1 9 277
1915218N14334 1915 25 NA CS NOT_NAMED 1915-08-11 00:00:00 TS 15.4000 -60.6000 80 hurdat_atl main 528 526 O_____________ hurdat_atl AL021915 15.4000 -60.6000 HU 80 1 8 277
1915218N14334 1915 25 NA CS NOT_NAMED 1915-08-11 03:00:00 TS 15.4423 -61.0276 main 526 526 P_____________ AL021915 15.4423 -61.0276 HU 80 1 9 277
1915218N14334 1915 25 NA CS NOT_NAMED 1915-08-11 06:00:00 TS 15.5000 -61.5000 80 hurdat_atl main 530 481 O_____________ hurdat_atl AL021915 15.5000 -61.5000 HU 80 1 10 278
1915218N14334 1915 25 NA CS NOT_NAMED 1915-08-11 09:00:00 TS 15.5847 -62.0402 main 481 416 P_____________ AL021915 15.5847 -62.0402 HU 82 1 12 280
1915218N14334 1915 25 NA CS NOT_NAMED 1915-08-11 12:00:00 TS 15.7000 -62.7000 85 hurdat_atl main 416 354 O_____________ hurdat_atl AL021915 15.7000 -62.7000 HU 85 2 14 280
1915218N14334 1915 25 NA CS NOT_NAMED 1915-08-11 15:00:00 TS 15.8423 -63.4901 main 347 274 P_____________ AL021915 15.8423 -63.4901 HU 85 2 17 280
1915218N14334 1915 25 NA CS NOT_NAMED 1915-08-11 18:00:00 TS 16.0000 -64.4000 85 hurdat_atl main 268 219 O_____________ hurdat_atl AL021915 16.0000 -64.4000 HU 85 2 18 280
1915218N14334 1915 25 NA CS NOT_NAMED 1915-08-11 21:00:00 TS 16.1498 -65.3776 main 216 179 P_____________ AL021915 16.1498 -65.3776 HU 85 2 19 279
1915218N14334 1915 25 NA CS NOT_NAMED 1915-08-12 00:00:00 TS 16.3000 -66.4000 85 hurdat_atl main 180 167 O_____________ hurdat_atl AL021915 16.3000 -66.4000 HU 85 2 20 279
1915218N14334 1915 25 NA CS NOT_NAMED 1915-08-12 03:00:00 TS 16.4420 -67.4003 main 169 159 P_____________ AL021915 16.4420 -67.4003 HU 87 2 19 279
1915218N14334 1915 25 NA CS NOT_NAMED 1915-08-12 06:00:00 TS 16.6000 -68.4000 90 hurdat_atl main 180 162 O_____________ hurdat_atl AL021915 16.6000 -68.4000 HU 90 2 20 280
1915218N14334 1915 25 NA CS NOT_NAMED 1915-08-12 09:00:00 TS 16.7920 -69.4001 main 169 134 P_____________ AL021915 16.7920 -69.4001 HU 90 2 20 282
1915218N14334 1915 25 NA CS NOT_NAMED 1915-08-12 12:00:00 TS 17.0000 -70.4000 90 hurdat_atl main 125 46 O_____________ hurdat_atl AL021915 17.0000 -70.4000 HU 90 2 20 282
1915218N14334 1915 25 NA CS NOT_NAMED 1915-08-12 15:00:00 TS 17.1995 -71.4002 main 44 44 P_____________ AL021915 17.1995 -71.4002 HU 90 2 20 282
1915218N14334 1915 25 NA CS NOT_NAMED 1915-08-12 18:00:00 TS 17.4000 -72.4000 90 hurdat_atl main 89 67 O_____________ hurdat_atl AL021915 17.4000 -72.4000 HU 90 2 20 282
1915218N14334 1915 25 NA CS NOT_NAMED 1915-08-12 21:00:00 TS 17.5920 -73.4004 main 61 33 P_____________ AL021915 17.5920 -73.4004 HU 92 2 20 282
1915218N14334 1915 25 NA CS NOT_NAMED 1915-08-13 00:00:00 TS 17.8000 -74.4000 95 hurdat_atl main 54 49 O_____________ hurdat_atl AL021915 17.8000 -74.4000 HU 95 2 20 283
1915218N14334 1915 25 NA CS NOT_NAMED 1915-08-13 03:00:00 TS 18.0422 -75.4151 main 85 10 P_____________ AL021915 18.0422 -75.4151 HU 95 2 20 285
1915218N14334 1915 25 NA CS NOT_NAMED 1915-08-13 06:00:00 TS 18.3000 -76.4000 95 hurdat_atl main 11 0 O_____________ hurdat_atl AL021915 18.3000 -76.4000 HU 95 2 19 285
1915218N14334 1915 25 NA CS NOT_NAMED 1915-08-13 09:00:00 TS 18.5499 -77.3601 main 11 11 P_____________ AL021915 18.5499 -77.3601 HU 97 3 18 286
1915218N14334 1915 25 NA CS NOT_NAMED 1915-08-13 12:00:00 TS 18.8000 -78.2000 100 hurdat_atl main 44 44 O_____________ hurdat_atl AL021915 18.8000 -78.2000 HU 100 3 15 290
1915218N14334 1915 25 NA CS NOT_NAMED 1915-08-13 15:00:00 TS 19.0493 -78.8453 main 85 85 P_____________ AL021915 19.0493 -78.8453 HU 100 3 12 294
1915218N14334 1915 25 NA CS NOT_NAMED 1915-08-13 18:00:00 TS 19.3000 -79.4000 100 hurdat_atl main 153 153 O_____________ hurdat_atl AL021915 19.3000 -79.4000 HU 100 3 12 295
1915218N14334 1915 25 NA CS NOT_NAMED 1915-08-13 21:00:00 TS 19.5421 -79.9779 main 217 217 P_____________ AL021915 19.5421 -79.9779 HU 102 3 12 294
1915218N14334 1915 25 NA CS NOT_NAMED 1915-08-14 00:00:00 TS 19.8000 -80.6000 105 hurdat_atl main 221 209 O_____________ hurdat_atl AL021915 19.8000 -80.6000 HU 105 3 14 293
1915218N14334 1915 25 NA CS NOT_NAMED 1915-08-14 03:00:00 TS 20.0926 -81.3425 main 209 133 P_____________ AL021915 20.0926 -81.3425 HU 110 3 15 293
1915218N14334 1915 25 NA CS NOT_NAMED 1915-08-14 06:00:00 TS 20.4000 -82.1000 115 hurdat_atl main 133 78 O_____________ hurdat_atl AL021915 20.4000 -82.1000 HU 115 4 15 294
1915218N14334 1915 25 NA CS NOT_NAMED 1915-08-14 09:00:00 TS 20.6921 -82.7654 main 78 63 P_____________ AL021915 20.6921 -82.7654 HU 120 4 14 296
1915218N14334 1915 25 NA CS NOT_NAMED 1915-08-14 12:00:00 TS 21.0000 -83.4000 125 hurdat_atl main 69 67 O_____________ hurdat_atl AL021915 21.0000 -83.4000 HU 125 4 14 298
1915218N14334 1915 25 NA CS NOT_NAMED 1915-08-14 15:00:00 TS 21.3499 -84.0650 main 67 15 P_____________ AL021915 21.3499 -84.0650 HU 125 4 14 300
1915218N14334 1915 25 NA CS NOT_NAMED 1915-08-14 18:00:00 TS 21.7000 -84.7000 125 hurdat_atl main 15 0 O_____________ hurdat_atl AL021915 21.7000 -84.7000 HU 125 4 13 300
1915218N14334 1915 25 NA GM NOT_NAMED 1915-08-14 21:00:00 TS 22.0074 -85.2878 main 32 32 P_____________ AL021915 22.0074 -85.2878 HU 125 4 12 300
1915218N14334 1915 25 NA GM NOT_NAMED 1915-08-15 00:00:00 TS 22.3000 -85.8000 125 hurdat_atl main 93 93 O_____________ hurdat_atl AL021915 22.3000 -85.8000 HU 125 4 10 305
1915218N14334 1915 25 NA GM NOT_NAMED 1915-08-15 03:00:00 TS 22.5997 -86.2154 main 146 142 P_____________ AL021915 22.5997 -86.2154 HU 125 4 10 309
1915218N14334 1915 25 NA GM NOT_NAMED 1915-08-15 06:00:00 TS 22.9000 -86.6000 125 hurdat_atl main 161 159 O_____________ hurdat_atl AL021915 22.9000 -86.6000 HU 125 4 10 308
1915218N14334 1915 25 NA GM NOT_NAMED 1915-08-15 09:00:00 TS 23.1999 -87.0427 main 190 190 P_____________ AL021915 23.1999 -87.0427 HU 122 4 10 306
1915218N14334 1915 25 NA GM NOT_NAMED 1915-08-15 12:00:00 TS 23.5000 -87.5000 120 hurdat_atl main 224 223 O_____________ hurdat_atl AL021915 23.5000 -87.5000 HU 120 4 10 306
1915218N14334 1915 25 NA GM NOT_NAMED 1915-08-15 15:00:00 TS 23.7999 -87.9577 main 257 257 P_____________ AL021915 23.7999 -87.9577 HU 120 4 10 306
1915218N14334 1915 25 NA GM NOT_NAMED 1915-08-15 18:00:00 TS 24.1000 -88.4000 120 hurdat_atl main 290 290 O_____________ hurdat_atl AL021915 24.1000 -88.4000 HU 120 4 10 308
1915218N14334 1915 25 NA GM NOT_NAMED 1915-08-15 21:00:00 TS 24.3923 -88.8004 main 324 324 P_____________ AL021915 24.3923 -88.8004 HU 117 4 9 309
1915218N14334 1915 25 NA GM NOT_NAMED 1915-08-16 00:00:00 TS 24.7000 -89.2000 115 hurdat_atl main 362 362 O_____________ hurdat_atl AL021915 24.7000 -89.2000 HU 115 4 10 310
1915218N14334 1915 25 NA GM NOT_NAMED 1915-08-16 03:00:00 TS 25.0349 -89.6353 main 404 404 P_____________ AL021915 25.0349 -89.6353 HU 115 4 11 311
1915218N14334 1915 25 NA GM NOT_NAMED 1915-08-16 06:00:00 TS 25.4000 -90.1000 115 hurdat_atl main 413 368 O_____________ hurdat_atl AL021915 25.4000 -90.1000 HU 115 4 11 312
1915218N14334 1915 25 NA GM NOT_NAMED 1915-08-16 09:00:00 TS 25.7847 -90.5705 main 368 323 P_____________ AL021915 25.7847 -90.5705 HU 115 4 12 312
1915218N14334 1915 25 NA GM NOT_NAMED 1915-08-16 12:00:00 TS 26.2000 -91.1000 115 hurdat_atl main 324 287 O_____________ hurdat_atl AL021915 26.2000 -91.1000 HU 115 4 13 310
1915218N14334 1915 25 NA GM NOT_NAMED 1915-08-16 15:00:00 TS 26.6425 -91.7277 main 289 266 P_____________ AL021915 26.6425 -91.7277 HU 115 4 15 308
1915218N14334 1915 25 NA GM NOT_NAMED 1915-08-16 18:00:00 TS 27.1000 -92.4000 115 hurdat_atl main 266 230 O_____________ hurdat_atl AL021915 27.1000 -92.4000 HU 115 4 15 308
1915218N14334 1915 25 NA GM NOT_NAMED 1915-08-16 21:00:00 TS 27.5497 -93.0505 main 236 184 P_____________ AL021915 27.5497 -93.0505 HU 115 4 15 308
1915218N14334 1915 25 NA GM NOT_NAMED 1915-08-17 00:00:00 TS 28.0000 -93.7000 115 hurdat_atl main 184 110 O_____________ hurdat_atl AL021915 28.0000 -93.7000 HU 115 4 15 302
1915218N14334 1915 25 NA GM NOT_NAMED 1915-08-17 03:00:00 TS 28.3288 -94.4450 main 110 22 P_____________ AL021915 28.3288 -94.4450 HU 115 4 15 308
1915218N14334 1915 25 NA GM NOT_NAMED 1915-08-17 06:00:00 TS 28.9000 -95.0000 115 940 hurdat_atl main 22 0 O_____________ hurdat_atl AL021915 28.9000 -95.0000 HU 115 940 4 16 327
1915218N14334 1915 25 NA GM NOT_NAMED 1915-08-17 07:00:00 TS 29.2000 -95.1000 115 940 hurdat_atl main 0 0 O_____________ hurdat_atl AL021915 29.2000 -95.1000 L HU 115 940 4 14 331
1915218N14334 1915 25 NA NA NOT_NAMED 1915-08-17 09:00:00 TS 29.5115 -95.3913 main 0 0 P_____________ AL021915 29.5115 -95.3913 HU 98 3 10 300
1915218N14334 1915 25 NA NA NOT_NAMED 1915-08-17 12:00:00 TS 29.6000 -95.9000 75 hurdat_atl main 0 0 O_____________ hurdat_atl AL021915 29.6000 -95.9000 HU 75 1 9 298
1915218N14334 1915 25 NA NA NOT_NAMED 1915-08-17 15:00:00 TS 29.9046 -96.2589 main 0 0 P_____________ AL021915 29.9046 -96.2589 HU 62 0 8 319
1915218N14334 1915 25 NA NA NOT_NAMED 1915-08-17 18:00:00 TS 30.2000 -96.5000 50 hurdat_atl main 0 0 O_____________ hurdat_atl AL021915 30.2000 -96.5000 TS 50 0 6 326
1915218N14334 1915 25 NA NA NOT_NAMED 1915-08-17 21:00:00 TS 30.4149 -96.6527 main 0 0 P_____________ AL021915 30.4149 -96.6527 TS 45 0 4 337
1915218N14334 1915 25 NA NA NOT_NAMED 1915-08-18 00:00:00 TS 30.6000 -96.7000 40 hurdat_atl main 0 0 O_____________ hurdat_atl AL021915 30.6000 -96.7000 TS 40 0 4 0
1915218N14334 1915 25 NA NA NOT_NAMED 1915-08-18 03:00:00 TS 30.8075 -96.6801 main 0 0 P_____________ AL021915 30.8075 -96.6801 TS 40 0 4 12
1915218N14334 1915 25 NA NA NOT_NAMED 1915-08-18 06:00:00 TS 31.0000 -96.6000 40 hurdat_atl main 0 0 O_____________ hurdat_atl AL021915 31.0000 -96.6000 TS 40 0 4 23
1915218N14334 1915 25 NA NA NOT_NAMED 1915-08-18 09:00:00 TS 31.1500 -96.5149 main 0 0 P_____________ AL021915 31.1500 -96.5149 TS 37 0 3 30
1915218N14334 1915 25 NA NA NOT_NAMED 1915-08-18 12:00:00 TS 31.3000 -96.4000 35 hurdat_atl main 0 0 O_____________ hurdat_atl AL021915 31.3000 -96.4000 TS 35 0 4 34
1915218N14334 1915 25 NA NA NOT_NAMED 1915-08-18 15:00:00 TS 31.4775 -96.2574 main 0 0 P_____________ AL021915 31.4775 -96.2574 TS 35 0 5 33
1915218N14334 1915 25 NA NA NOT_NAMED 1915-08-18 18:00:00 TS 31.7000 -96.1000 35 hurdat_atl main 0 0 O_____________ hurdat_atl AL021915 31.7000 -96.1000 TS 35 0 6 26
1915218N14334 1915 25 NA NA NOT_NAMED 1915-08-18 21:00:00 TS 31.9849 -95.9648 main 0 0 P_____________ AL021915 31.9849 -95.9648 TS 32 -1 7 23
1915218N14334 1915 25 NA NA NOT_NAMED 1915-08-19 00:00:00 TS 32.3000 -95.8000 30 hurdat_atl main 0 0 O_____________ hurdat_atl AL021915 32.3000 -95.8000 TD 30 -1 7 28
1915218N14334 1915 25 NA NA NOT_NAMED 1915-08-19 03:00:00 TS 32.5924 -95.5798 main 0 0 P_____________ AL021915 32.5924 -95.5798 TD 30 -1 7 35
1915218N14334 1915 25 NA NA NOT_NAMED 1915-08-19 06:00:00 TS 32.9000 -95.3000 30 hurdat_atl main 0 0 O_____________ hurdat_atl AL021915 32.9000 -95.3000 TD 30 -1 8 37
1915218N14334 1915 25 NA NA NOT_NAMED 1915-08-19 09:00:00 TS 33.2422 -94.9946 main 0 0 P_____________ AL021915 33.2422 -94.9946 TD 30 -1 9 40
1915218N14334 1915 25 NA NA NOT_NAMED 1915-08-19 12:00:00 TS 33.6000 -94.6000 30 hurdat_atl main 0 0 O_____________ hurdat_atl AL021915 33.6000 -94.6000 TD 30 -1 10 48
1915218N14334 1915 25 NA NA NOT_NAMED 1915-08-19 15:00:00 TS 33.9351 -94.0796 main 0 0 P_____________ AL021915 33.9351 -94.0796 TD 30 -1 12 53
1915218N14334 1915 25 NA NA NOT_NAMED 1915-08-19 18:00:00 TS 34.3000 -93.5000 30 hurdat_atl main 0 0 O_____________ hurdat_atl AL021915 34.3000 -93.5000 TD 30 -1 12 50
1915218N14334 1915 25 NA NA NOT_NAMED 1915-08-19 21:00:00 TS 34.7272 -92.9569 main 0 0 P_____________ AL021915 34.7272 -92.9569 TD 32 -1 13 45
1915218N14334 1915 25 NA NA NOT_NAMED 1915-08-20 00:00:00 ET 35.2000 -92.4000 35 hurdat_atl main 0 0 O_____________ hurdat_atl AL021915 35.2000 -92.4000 EX 35 -4 14 44
1915218N14334 1915 25 NA NA NOT_NAMED 1915-08-20 03:00:00 ET 35.7074 -91.8000 main 0 0 P_____________ AL021915 35.7074 -91.8000 EX 35 -4 14 44
1915218N14334 1915 25 NA NA NOT_NAMED 1915-08-20 06:00:00 ET 36.2000 -91.2000 35 hurdat_atl main 0 0 O_____________ hurdat_atl AL021915 36.2000 -91.2000 EX 35 -4 13 46
1915218N14334 1915 25 NA NA NOT_NAMED 1915-08-20 09:00:00 ET 36.6222 -90.6343 main 0 0 P_____________ AL021915 36.6222 -90.6343 EX 35 -4 12 48
1915218N14334 1915 25 NA NA NOT_NAMED 1915-08-20 12:00:00 ET 37.0000 -90.1000 35 hurdat_atl main 0 0 O_____________ hurdat_atl AL021915 37.0000 -90.1000 EX 35 -4 11 48
1915218N14334 1915 25 NA NA NOT_NAMED 1915-08-20 15:00:00 ET 37.3722 -89.5921 main 0 0 P_____________ AL021915 37.3722 -89.5921 EX 35 -4 11 49
1915218N14334 1915 25 NA NA NOT_NAMED 1915-08-20 18:00:00 ET 37.7000 -89.1000 35 hurdat_atl main 0 0 O_____________ hurdat_atl AL021915 37.7000 -89.1000 EX 35 -4 10 53
1915218N14334 1915 25 NA NA NOT_NAMED 1915-08-20 21:00:00 ET 37.9573 -88.5992 main 0 0 P_____________ AL021915 37.9573 -88.5992 EX 35 -4 9 58
1915218N14334 1915 25 NA NA NOT_NAMED 1915-08-21 00:00:00 ET 38.2000 -88.1000 35 hurdat_atl main 0 0 O_____________ hurdat_atl AL021915 38.2000 -88.1000 EX 35 -4 9 56
1915218N14334 1915 25 NA NA NOT_NAMED 1915-08-21 03:00:00 ET 38.4847 -87.6070 main 0 0 P_____________ AL021915 38.4847 -87.6070 EX 35 -4 10 53
1915218N14334 1915 25 NA NA NOT_NAMED 1915-08-21 06:00:00 ET 38.8000 -87.1000 35 hurdat_atl main 0 0 O_____________ hurdat_atl AL021915 38.8000 -87.1000 EX 35 -4 10 51
1915218N14334 1915 25 NA NA NOT_NAMED 1915-08-21 09:00:00 ET 39.1269 -86.5863 main 0 0 P_____________ AL021915 39.1269 -86.5863 EX 35 -4 11 51
1915218N14334 1915 25 NA NA NOT_NAMED 1915-08-21 12:00:00 ET 39.5000 -86.0000 35 hurdat_atl main 0 0 O_____________ hurdat_atl AL021915 39.5000 -86.0000 EX 35 -4 13 51
1915218N14334 1915 25 NA NA NOT_NAMED 1915-08-21 15:00:00 ET 39.9196 -85.3014 main 0 0 P_____________ AL021915 39.9196 -85.3014 EX 35 -4 15 52
1915218N14334 1915 25 NA NA NOT_NAMED 1915-08-21 18:00:00 ET 40.4000 -84.5000 35 hurdat_atl main 0 0 O_____________ hurdat_atl AL021915 40.4000 -84.5000 EX 35 -4 16 51
1915218N14334 1915 25 NA NA NOT_NAMED 1915-08-21 21:00:00 ET 40.9345 -83.6367 main 0 0 P_____________ AL021915 40.9345 -83.6367 EX 35 -4 17 51
1915218N14334 1915 25 NA NA NOT_NAMED 1915-08-22 00:00:00 ET 41.5000 -82.7000 35 hurdat_atl main 0 0 O_____________ hurdat_atl AL021915 41.5000 -82.7000 EX 35 -4 18 52
1915218N14334 1915 25 NA NA NOT_NAMED 1915-08-22 03:00:00 ET 42.0650 -81.6924 main 0 0 P_____________ AL021915 42.0650 -81.6924 EX 32 -4 18 53
1915218N14334 1915 25 NA NA NOT_NAMED 1915-08-22 06:00:00 ET 42.6000 -80.7000 30 hurdat_atl main 0 0 O_____________ hurdat_atl AL021915 42.6000 -80.7000 EX 30 -4 17 54
1915218N14334 1915 25 NA NA NOT_NAMED 1915-08-22 09:00:00 ET 43.0716 -79.8108 main 0 0 P_____________ AL021915 43.0716 -79.8108 EX 27 -4 15 54
1915218N14334 1915 25 NA NA NOT_NAMED 1915-08-22 12:00:00 ET 43.5000 -79.0000 25 hurdat_atl main 0 0 O_____________ hurdat_atl AL021915 43.5000 -79.0000 EX 25 -4 14 54
1915218N14334 1915 25 NA NA NOT_NAMED 1915-08-22 15:00:00 ET 43.9143 -78.2263 main 0 0 P_____________ AL021915 43.9143 -78.2263 EX 25 -4 13 53
1915218N14334 1915 25 NA NA NOT_NAMED 1915-08-22 18:00:00 ET 44.3000 -77.5000 25 hurdat_atl main 0 0 O_____________ hurdat_atl AL021915 44.3000 -77.5000 EX 25 -4 13 54
1915218N14334 1915 25 NA NA NOT_NAMED 1915-08-22 21:00:00 ET 44.6644 -76.7915 main 0 0 P_____________ AL021915 44.6644 -76.7915 EX 25 -4 12 55
1915218N14334 1915 25 NA NA NOT_NAMED 1915-08-23 00:00:00 ET 45.0000 -76.1000 25 hurdat_atl main 0 0 O_____________ hurdat_atl AL021915 45.0000 -76.1000 EX 25 -4 12 57
1915218N14334 1915 25 NA NA NOT_NAMED 1915-08-23 03:00:00 ET 45.3072 -75.3916 main 0 0 P_____________ AL021915 45.3072 -75.3916 EX 25 -4 12 59
1915218N14334 1915 25 NA NA NOT_NAMED 1915-08-23 06:00:00 ET 45.6000 -74.7000 25 hurdat_atl main 0 0 O_____________ hurdat_atl AL021915 45.6000 -74.7000 EX 25 -4 11 59
1915218N14334 1915 25 NA NA NOT_NAMED 1915-08-23 09:00:00 ET 45.8848 -74.0191 main 0 0 P_____________ AL021915 45.8848 -74.0191 EX 25 -4 11 56
1915218N14334 1915 25 NA NA NOT_NAMED 1915-08-23 12:00:00 ET 46.2000 -73.4000 25 hurdat_atl main 0 0 O_____________ hurdat_atl AL021915 46.2000 -73.4000 EX 25 -4 11 49
1915218N14334 1915 25 NA NA NOT_NAMED 1915-08-23 15:00:00 ET 46.5802 -72.8740 main 0 0 P_____________ AL021915 46.5802 -72.8740 EX 25 -4 11 41
1915218N14334 1915 25 NA NA NOT_NAMED 1915-08-23 18:00:00 ET 47.0000 -72.4000 25 hurdat_atl main 0 O_____________ hurdat_atl AL021915 47.0000 -72.4000 EX 25 -4 11 38

About IBTrACS Database

This database is a web-friendly format of International Best Track Archive for Climate Stewardship (IBTrACS), a global best track data archive curated by NOAA dating back to 1842.

Updated: 2021-10-08